createdAt,value
2023-10-26T00:01:52.877Z,11.25
2023-10-26T00:04:20.612Z,11.15
2023-10-26T00:06:48.445Z,11.17
2023-10-26T00:09:17.415Z,11.19
2023-10-26T00:11:45.065Z,11.13
2023-10-26T00:14:12.695Z,11.06
2023-10-26T00:16:40.455Z,11.04
2023-10-26T00:19:08.116Z,11.02
2023-10-26T00:21:35.737Z,11.03
2023-10-26T00:24:03.503Z,11.01
2023-10-26T00:26:32.470Z,11.07
2023-10-26T00:29:00.055Z,11.07
2023-10-26T00:31:27.716Z,11.11
2023-10-26T00:33:55.341Z,11.03
2023-10-26T00:36:23.322Z,11.09
2023-10-26T00:38:50.949Z,11.08
2023-10-26T00:41:18.556Z,11.12
2023-10-26T00:43:48.676Z,11.06
2023-10-26T00:46:16.518Z,11.09
2023-10-26T00:48:44.484Z,10.99
2023-10-26T00:51:12.255Z,11.00
2023-10-26T00:53:42.598Z,10.96
2023-10-26T00:56:13.567Z,10.96
2023-10-26T00:58:41.642Z,10.93
2023-10-26T01:01:10.798Z,10.86
2023-10-26T01:03:41.586Z,10.73
2023-10-26T01:06:09.958Z,10.75
2023-10-26T01:08:38.003Z,10.61
2023-10-26T01:11:05.963Z,10.52
2023-10-26T01:13:34.404Z,10.56
2023-10-26T01:16:04.080Z,10.54
2023-10-26T01:18:33.571Z,10.48
2023-10-26T01:21:01.304Z,10.30
2023-10-26T01:23:30.252Z,10.40
2023-10-26T01:25:59.615Z,10.37
2023-10-26T01:28:27.470Z,10.37
2023-10-26T01:30:55.617Z,10.38
2023-10-26T01:33:23.403Z,10.54
2023-10-26T01:35:51.262Z,10.49
2023-10-26T01:38:18.941Z,10.45
2023-10-26T01:40:47.911Z,10.47
2023-10-26T01:43:15.500Z,10.41
2023-10-26T01:45:43.166Z,10.35
2023-10-26T01:48:10.910Z,10.34
2023-10-26T01:50:39.623Z,10.33
2023-10-26T01:53:07.489Z,10.39
2023-10-26T01:55:35.144Z,10.38
2023-10-26T01:58:04.164Z,10.35
2023-10-26T02:00:31.791Z,10.33
2023-10-26T02:02:59.821Z,10.26
2023-10-26T02:05:27.763Z,10.17
2023-10-26T02:07:55.423Z,10.06
2023-10-26T02:10:24.946Z,9.94
2023-10-26T02:12:52.622Z,9.87
2023-10-26T02:15:21.605Z,9.78
2023-10-26T02:17:49.327Z,9.60
2023-10-26T02:20:17.039Z,9.65
2023-10-26T02:22:44.673Z,9.50
2023-10-26T02:25:12.291Z,9.49
2023-10-26T02:27:39.985Z,9.47
2023-10-26T02:30:08.955Z,9.46
2023-10-26T02:32:37.912Z,9.35
2023-10-26T02:35:06.179Z,9.31
2023-10-26T02:37:34.375Z,9.33
2023-10-26T02:40:02.117Z,9.26
2023-10-26T02:42:29.761Z,9.21
2023-10-26T02:44:58.912Z,9.27
2023-10-26T02:47:26.567Z,9.29
2023-10-26T02:49:55.615Z,9.29
2023-10-26T02:52:23.401Z,9.20
2023-10-26T02:54:51.275Z,9.21
2023-10-26T02:57:19.077Z,9.21
2023-10-26T02:59:46.738Z,9.21
2023-10-26T03:02:14.404Z,9.20
2023-10-26T03:04:44.197Z,9.21
2023-10-26T03:07:13.509Z,9.18
2023-10-26T03:09:41.253Z,9.17
2023-10-26T03:12:09.765Z,9.21
2023-10-26T03:14:37.411Z,9.18
2023-10-26T03:17:05.397Z,9.19
2023-10-26T03:19:33.378Z,9.20
2023-10-26T03:22:01.111Z,9.20
2023-10-26T03:24:30.131Z,9.21
2023-10-26T03:26:57.803Z,9.24
2023-10-26T03:29:25.486Z,9.24
2023-10-26T03:31:53.673Z,9.17
2023-10-26T03:34:21.305Z,9.21
2023-10-26T03:36:48.964Z,9.20
2023-10-26T03:39:16.637Z,9.21
2023-10-26T03:41:45.638Z,9.19
2023-10-26T03:44:13.293Z,9.14
2023-10-26T03:46:40.961Z,9.12
2023-10-26T03:49:08.555Z,9.12
2023-10-26T03:51:36.190Z,9.08
2023-10-26T03:54:04.388Z,9.06
2023-10-26T03:56:32.007Z,9.02
2023-10-26T03:59:00.935Z,9.14
2023-10-26T04:01:28.560Z,9.25
2023-10-26T04:03:56.160Z,9.28
2023-10-26T04:06:23.860Z,9.25
2023-10-26T04:08:55.365Z,9.20
2023-10-26T04:11:22.986Z,9.20
2023-10-26T04:13:50.619Z,9.19
2023-10-26T04:16:19.631Z,9.23
2023-10-26T04:18:47.276Z,9.14
2023-10-26T04:21:14.945Z,9.14
2023-10-26T04:23:42.656Z,9.12
2023-10-26T04:26:13.276Z,9.04
2023-10-26T04:28:51.442Z,9.06
2023-10-26T04:31:21.929Z,9.13
2023-10-26T04:33:50.193Z,9.15
2023-10-26T04:36:17.908Z,9.14
2023-10-26T04:38:45.561Z,9.13
2023-10-26T04:41:13.160Z,9.09
2023-10-26T04:43:40.793Z,9.10
2023-10-26T04:46:08.506Z,9.09
2023-10-26T04:48:37.558Z,9.10
2023-10-26T04:51:05.391Z,9.10
2023-10-26T04:53:33.000Z,9.01
2023-10-26T04:56:00.642Z,8.99
2023-10-26T04:58:28.309Z,9.01
2023-10-26T05:00:55.933Z,8.96
2023-10-26T05:03:23.569Z,8.97
2023-10-26T05:05:53.699Z,8.99
2023-10-26T05:08:21.449Z,8.98
2023-10-26T05:10:49.169Z,8.93
2023-10-26T05:13:16.820Z,8.92
2023-10-26T05:15:45.001Z,8.94
2023-10-26T05:18:12.799Z,8.90
2023-10-26T05:20:40.888Z,8.87
2023-10-26T05:23:09.945Z,8.83
2023-10-26T05:25:38.369Z,8.94
2023-10-26T05:28:06.062Z,8.95
2023-10-26T05:30:33.741Z,8.97
2023-10-26T05:33:01.496Z,8.96
2023-10-26T05:35:29.211Z,9.06
2023-10-26T05:37:56.855Z,9.10
2023-10-26T05:40:26.058Z,9.13
2023-10-26T05:42:53.535Z,9.13
2023-10-26T05:45:21.176Z,9.12
2023-10-26T05:47:53.825Z,9.13
2023-10-26T05:50:21.866Z,9.17
2023-10-26T05:52:49.815Z,9.20
2023-10-26T05:55:17.541Z,9.24
2023-10-26T05:57:46.555Z,9.21
2023-10-26T06:00:15.160Z,9.28
2023-10-26T06:02:42.863Z,9.37
2023-10-26T06:05:10.510Z,9.29
2023-10-26T06:07:38.158Z,9.28
2023-10-26T06:10:07.080Z,9.18
2023-10-26T06:12:34.746Z,9.21
2023-10-26T06:15:03.842Z,9.15
2023-10-26T06:17:31.559Z,9.14
2023-10-26T06:19:59.226Z,9.20
2023-10-26T06:22:26.846Z,9.19
2023-10-26T06:24:54.493Z,9.19
2023-10-26T06:27:22.121Z,9.20
2023-10-26T06:29:53.524Z,9.22
2023-10-26T06:32:22.464Z,9.23
2023-10-26T06:34:51.857Z,9.23
2023-10-26T06:37:19.484Z,9.25
2023-10-26T06:39:47.134Z,9.32
2023-10-26T06:42:14.770Z,9.31
2023-10-26T06:44:42.737Z,9.31
2023-10-26T06:47:10.537Z,9.31
2023-10-26T06:49:42.327Z,9.34
2023-10-26T06:52:10.117Z,9.36
2023-10-26T06:54:39.936Z,9.41
2023-10-26T06:57:08.281Z,9.53
2023-10-26T06:59:35.903Z,9.57
2023-10-26T07:02:10.423Z,9.60
2023-10-26T07:04:39.862Z,9.57
2023-10-26T07:07:09.116Z,9.61
2023-10-26T07:09:37.040Z,9.58
2023-10-26T07:12:05.159Z,9.59
2023-10-26T07:14:32.818Z,9.64
2023-10-26T07:17:00.447Z,9.67
2023-10-26T07:19:28.032Z,9.78
2023-10-26T07:21:57.062Z,9.78
2023-10-26T07:24:24.772Z,9.88
2023-10-26T07:26:52.487Z,9.88
2023-10-26T07:29:20.116Z,9.95
2023-10-26T07:31:50.392Z,9.93
2023-10-26T07:34:18.795Z,9.93
2023-10-26T07:36:46.420Z,9.95
2023-10-26T07:39:48.052Z,10.00
2023-10-26T07:42:07.358Z,10.03
2023-10-26T07:44:38.564Z,10.02
2023-10-26T07:47:09.593Z,10.00
2023-10-26T07:49:37.488Z,10.03
2023-10-26T07:52:06.173Z,10.09
2023-10-26T07:54:35.170Z,10.09
2023-10-26T07:57:02.799Z,10.17
2023-10-26T07:59:31.570Z,10.20
2023-10-26T08:01:59.342Z,10.27
2023-10-26T08:04:28.707Z,10.34
2023-10-26T08:06:56.372Z,10.36
2023-10-26T08:09:24.130Z,10.42
2023-10-26T08:11:53.127Z,10.49
2023-10-26T08:14:35.859Z,10.40
2023-10-26T08:17:08.466Z,10.51
2023-10-26T08:19:36.189Z,10.60
2023-10-26T08:22:03.965Z,10.65
2023-10-26T08:24:31.603Z,10.60
2023-10-26T08:27:00.580Z,10.61
2023-10-26T08:29:29.616Z,10.62
2023-10-26T08:31:57.664Z,10.71
2023-10-26T08:34:25.582Z,10.74
2023-10-26T08:37:11.652Z,10.75
2023-10-26T08:39:41.016Z,10.81
2023-10-26T08:42:10.881Z,10.89
2023-10-26T08:44:40.828Z,10.92
2023-10-26T08:47:11.230Z,11.05
2023-10-26T08:49:40.629Z,11.18
2023-10-26T08:52:09.249Z,11.22
2023-10-26T08:54:37.030Z,11.27
2023-10-26T08:57:09.141Z,11.30
2023-10-26T08:59:38.592Z,11.34
2023-10-26T09:02:07.027Z,11.33
2023-10-26T09:04:35.183Z,11.39
2023-10-26T09:07:02.887Z,11.42
2023-10-26T09:09:31.021Z,11.43
2023-10-26T09:12:10.388Z,11.38
2023-10-26T09:14:39.335Z,11.42
2023-10-26T09:17:07.136Z,11.41
2023-10-26T09:19:42.261Z,11.45
2023-10-26T09:22:14.077Z,11.42
2023-10-26T09:24:41.905Z,11.43
2023-10-26T09:27:19.127Z,11.36
2023-10-26T09:29:48.376Z,11.34
2023-10-26T09:32:16.030Z,11.28
2023-10-26T09:34:46.813Z,11.28
2023-10-26T09:37:14.782Z,11.23
2023-10-26T09:39:43.188Z,11.25
2023-10-26T09:42:12.564Z,11.23
2023-10-26T09:44:40.803Z,11.27
2023-10-26T09:47:11.248Z,11.32
2023-10-26T09:49:39.296Z,11.31
2023-10-26T09:52:07.356Z,11.32
2023-10-26T09:54:37.727Z,11.39
2023-10-26T09:57:13.148Z,11.41
2023-10-26T09:59:41.925Z,11.43
2023-10-26T10:02:18.303Z,11.40
2023-10-26T10:04:46.775Z,11.43
2023-10-26T10:07:18.089Z,11.39
2023-10-26T10:10:08.370Z,11.35
2023-10-26T10:12:36.963Z,11.36
2023-10-26T10:15:36.200Z,11.45
2023-10-26T10:18:17.400Z,11.37
2023-10-26T10:20:45.122Z,11.38
2023-10-26T10:23:31.052Z,11.34
2023-10-26T10:26:05.765Z,11.42
2023-10-26T10:28:49.164Z,11.45
2023-10-26T10:31:41.819Z,11.51
2023-10-26T10:34:12.537Z,11.64
2023-10-26T10:37:12.681Z,11.65
2023-10-26T10:40:01.384Z,11.67
2023-10-26T10:42:30.569Z,11.69
2023-10-26T10:45:00.427Z,11.82
2023-10-26T10:47:29.935Z,11.95
2023-10-26T10:50:15.850Z,12.05
2023-10-26T10:52:43.812Z,12.04
2023-10-26T10:55:14.803Z,12.03
2023-10-26T10:57:57.587Z,12.02
2023-10-26T11:00:26.824Z,12.06
2023-10-26T11:02:58.250Z,12.00
2023-10-26T11:05:37.479Z,12.00
2023-10-26T11:08:06.415Z,11.96
2023-10-26T11:10:34.456Z,11.95
2023-10-26T11:13:03.605Z,11.93
2023-10-26T11:15:34.415Z,11.84
2023-10-26T11:18:02.944Z,11.89
2023-10-26T11:20:38.738Z,11.85
2023-10-26T11:23:06.608Z,11.88
2023-10-26T11:25:34.658Z,12.03
2023-10-26T11:28:03.801Z,12.10
2023-10-26T11:30:32.125Z,12.40
2023-10-26T11:33:00.044Z,12.83
2023-10-26T11:35:27.782Z,13.24
2023-10-26T11:37:56.680Z,13.25
2023-10-26T11:40:32.126Z,13.39
2023-10-26T11:43:01.000Z,13.38
2023-10-26T11:45:30.502Z,13.19
2023-10-26T11:47:59.981Z,13.33
2023-10-26T11:50:29.313Z,13.24
2023-10-26T11:52:58.600Z,13.29
2023-10-26T11:55:27.498Z,13.31
2023-10-26T11:57:57.312Z,13.61
2023-10-26T12:00:28.008Z,13.58
2023-10-26T12:02:58.628Z,13.72
2023-10-26T12:05:28.088Z,13.76
2023-10-26T12:07:56.902Z,13.76
2023-10-26T12:10:25.756Z,13.83
2023-10-26T12:12:54.483Z,14.29
2023-10-26T12:15:23.118Z,14.42
2023-10-26T12:17:51.033Z,14.87
2023-10-26T12:20:20.513Z,15.02
2023-10-26T12:22:49.569Z,14.85
2023-10-26T12:25:17.214Z,14.88
2023-10-26T12:28:20.724Z,14.81
2023-10-26T12:30:32.820Z,14.79
2023-10-26T12:33:00.557Z,14.76
2023-10-26T12:35:29.786Z,15.31
2023-10-26T12:37:57.751Z,16.03
2023-10-26T12:40:25.462Z,16.30
2023-10-26T12:42:53.102Z,15.99
2023-10-26T12:45:22.100Z,15.88
2023-10-26T12:47:49.630Z,15.28
2023-10-26T12:50:17.331Z,15.23
2023-10-26T12:52:46.616Z,14.97
2023-10-26T12:55:14.251Z,14.87
2023-10-26T12:57:42.227Z,14.92
2023-10-26T13:00:11.234Z,15.47
2023-10-26T13:02:38.889Z,15.26
2023-10-26T13:05:07.064Z,15.08
2023-10-26T13:07:35.198Z,14.89
2023-10-26T13:10:14.331Z,14.78
2023-10-26T13:12:44.996Z,14.59
2023-10-26T13:15:15.432Z,14.57
2023-10-26T13:17:49.110Z,14.44
2023-10-26T13:20:17.005Z,14.43
2023-10-26T13:22:44.671Z,14.42
2023-10-26T13:25:13.713Z,14.34
2023-10-26T13:27:41.216Z,14.33
2023-10-26T13:30:09.852Z,14.30
2023-10-26T13:32:37.495Z,14.28
2023-10-26T13:35:05.515Z,14.32
2023-10-26T13:37:33.093Z,14.37
2023-10-26T13:40:00.759Z,14.31
2023-10-26T13:42:32.753Z,14.26
2023-10-26T13:45:00.386Z,14.24
2023-10-26T13:47:28.273Z,14.16
2023-10-26T13:49:55.883Z,14.13
2023-10-26T13:52:24.194Z,14.05
2023-10-26T13:54:51.897Z,13.98
2023-10-26T13:57:19.606Z,13.95
2023-10-26T13:59:48.532Z,13.99
2023-10-26T14:02:20.245Z,14.06
2023-10-26T14:04:47.970Z,14.09
2023-10-26T14:07:16.519Z,14.07
2023-10-26T14:09:45.091Z,14.03
2023-10-26T14:12:14.172Z,13.98
2023-10-26T14:14:41.664Z,13.98
2023-10-26T14:17:10.725Z,13.89
2023-10-26T14:19:38.308Z,13.85
2023-10-26T14:22:06.008Z,13.79
2023-10-26T14:24:33.702Z,13.78
2023-10-26T14:27:01.291Z,13.74
2023-10-26T14:29:28.905Z,13.68
2023-10-26T14:31:56.558Z,13.70
2023-10-26T14:34:25.522Z,13.73
2023-10-26T14:36:53.175Z,13.67
2023-10-26T14:39:21.562Z,13.63
2023-10-26T14:41:49.212Z,13.57
2023-10-26T14:44:16.841Z,13.49
2023-10-26T14:46:44.506Z,13.48
2023-10-26T14:49:12.150Z,13.40
2023-10-26T14:51:43.845Z,13.39
2023-10-26T14:54:11.490Z,13.30
2023-10-26T14:56:39.207Z,13.34
2023-10-26T14:59:07.020Z,13.31
2023-10-26T15:01:35.135Z,13.27
2023-10-26T15:04:02.865Z,13.25
2023-10-26T15:06:30.452Z,13.28
2023-10-26T15:08:59.464Z,13.24
2023-10-26T15:11:27.124Z,13.23
2023-10-26T15:14:15.474Z,13.21
2023-10-26T15:16:43.504Z,13.12
2023-10-26T15:19:11.314Z,13.05
2023-10-26T15:21:38.968Z,13.04
2023-10-26T15:24:08.856Z,13.04
2023-10-26T15:26:36.505Z,12.98
2023-10-26T15:29:04.226Z,12.95
2023-10-26T15:31:31.983Z,12.97
2023-10-26T15:34:00.566Z,12.90
2023-10-26T15:36:28.216Z,12.88
2023-10-26T15:38:56.197Z,12.76
2023-10-26T15:41:25.171Z,12.72
2023-10-26T15:43:52.901Z,12.69
2023-10-26T15:46:20.644Z,12.63
2023-10-26T15:49:32.018Z,12.58
2023-10-26T15:51:36.099Z,12.52
2023-10-26T15:54:03.917Z,12.52
2023-10-26T15:56:32.877Z,12.41
2023-10-26T15:59:00.508Z,12.33
2023-10-26T16:01:28.279Z,12.29
2023-10-26T16:03:55.998Z,12.18
2023-10-26T16:06:23.846Z,12.13
2023-10-26T16:08:51.522Z,12.06
2023-10-26T16:11:19.153Z,12.07
2023-10-26T16:13:48.358Z,12.13
2023-10-26T16:16:16.068Z,12.10
2023-10-26T16:18:47.047Z,12.08
2023-10-26T16:21:15.124Z,11.98
2023-10-26T16:23:42.921Z,11.88
2023-10-26T16:26:10.678Z,11.85
2023-10-26T16:28:39.328Z,11.76
2023-10-26T16:31:08.671Z,11.76
2023-10-26T16:33:37.837Z,11.78
2023-10-26T16:36:05.824Z,11.79
2023-10-26T16:38:33.506Z,11.69
2023-10-26T16:41:01.156Z,11.62
2023-10-26T16:43:28.768Z,11.65
2023-10-26T16:45:57.746Z,11.61
2023-10-26T16:48:27.562Z,11.58
2023-10-26T16:50:56.130Z,11.56
2023-10-26T16:53:31.134Z,11.59
2023-10-26T16:56:00.341Z,11.60
2023-10-26T16:58:28.122Z,11.60
2023-10-26T17:00:59.047Z,11.66
2023-10-26T17:03:29.038Z,11.66
2023-10-26T17:05:56.726Z,11.66
2023-10-26T17:08:24.394Z,11.67
2023-10-26T17:10:52.225Z,11.72
2023-10-26T17:13:20.890Z,11.74
2023-10-26T17:15:52.366Z,11.75
2023-10-26T17:18:20.579Z,11.73
2023-10-26T17:20:49.704Z,11.74
2023-10-26T17:23:17.389Z,11.68
2023-10-26T17:25:45.180Z,11.62
2023-10-26T17:28:12.915Z,11.53
2023-10-26T17:30:41.240Z,11.57
2023-10-26T17:33:13.453Z,11.48
2023-10-26T17:35:44.151Z,11.41
2023-10-26T17:38:13.141Z,11.37
2023-10-26T17:40:40.775Z,11.35
2023-10-26T17:43:09.439Z,11.33
2023-10-26T17:45:37.363Z,11.34
2023-10-26T17:48:05.323Z,11.36
2023-10-26T17:50:33.049Z,11.35
2023-10-26T17:53:00.638Z,11.38
2023-10-26T17:55:29.589Z,11.38
2023-10-26T17:57:57.239Z,11.41
2023-10-26T18:00:24.884Z,11.33
2023-10-26T18:02:52.577Z,11.33
2023-10-26T18:05:20.206Z,11.34
2023-10-26T18:07:47.838Z,11.35
2023-10-26T18:10:16.161Z,11.29
2023-10-26T18:12:45.824Z,11.22
2023-10-26T18:15:14.384Z,11.29
2023-10-26T18:17:42.048Z,11.28
2023-10-26T18:20:11.090Z,11.26
2023-10-26T18:22:38.719Z,11.25
2023-10-26T18:25:07.242Z,11.23
2023-10-26T18:27:34.896Z,11.18
2023-10-26T18:30:03.985Z,11.20
2023-10-26T18:32:31.678Z,11.11
2023-10-26T18:34:59.399Z,11.13
2023-10-26T18:37:28.040Z,11.14
2023-10-26T18:39:58.041Z,11.17
2023-10-26T18:42:25.912Z,11.12
2023-10-26T18:44:53.630Z,11.10
2023-10-26T18:47:22.586Z,11.12
2023-10-26T18:49:51.666Z,11.07
2023-10-26T18:52:19.308Z,11.09
2023-10-26T18:54:46.938Z,11.09
2023-10-26T18:57:14.588Z,11.07
2023-10-26T18:59:42.235Z,10.98
2023-10-26T19:02:10.414Z,10.93
2023-10-26T19:04:39.623Z,10.88
2023-10-26T19:07:08.123Z,10.79
2023-10-26T19:09:35.803Z,10.70
2023-10-26T19:12:03.428Z,10.62
2023-10-26T19:14:32.878Z,10.54
2023-10-26T19:17:00.568Z,10.49
2023-10-26T19:19:27.276Z,10.46
2023-10-26T19:21:56.256Z,10.51
2023-10-26T19:24:24.120Z,10.55
2023-10-26T19:26:51.884Z,10.54
2023-10-26T19:29:19.508Z,10.53
2023-10-26T19:31:47.278Z,10.51
2023-10-26T19:34:15.070Z,10.50
2023-10-26T19:36:42.849Z,10.51
2023-10-26T19:39:11.881Z,10.47
2023-10-26T19:41:39.572Z,10.49
2023-10-26T19:44:08.619Z,10.47
2023-10-26T19:46:39.680Z,10.43
2023-10-26T19:49:08.064Z,10.37
2023-10-26T19:51:35.723Z,10.35
2023-10-26T19:54:04.824Z,10.37
2023-10-26T19:56:33.866Z,10.34
2023-10-26T19:59:01.572Z,10.32
2023-10-26T20:01:29.301Z,10.28
2023-10-26T20:03:57.141Z,10.31
2023-10-26T20:06:25.242Z,10.30
2023-10-26T20:08:53.051Z,10.39
2023-10-26T20:11:21.374Z,10.39
2023-10-26T20:13:50.538Z,10.37
2023-10-26T20:16:18.191Z,10.24
2023-10-26T20:18:49.376Z,10.15
2023-10-26T20:21:17.133Z,10.12
2023-10-26T20:23:44.849Z,10.10
2023-10-26T20:26:12.499Z,10.12
2023-10-26T20:28:40.310Z,10.18
2023-10-26T20:31:09.353Z,10.18
2023-10-26T20:33:37.079Z,10.22
2023-10-26T20:36:05.468Z,10.27
2023-10-26T20:38:33.470Z,10.32
2023-10-26T20:41:01.116Z,10.32
2023-10-26T20:43:28.777Z,10.36
2023-10-26T20:45:57.506Z,10.25
2023-10-26T20:48:27.073Z,10.24
2023-10-26T20:50:57.179Z,10.33
2023-10-26T20:53:27.865Z,10.38
2023-10-26T20:55:59.038Z,10.41
2023-10-26T20:58:26.698Z,10.48
2023-10-26T21:00:54.372Z,10.53
2023-10-26T21:03:22.534Z,10.55
2023-10-26T21:05:51.795Z,10.55
2023-10-26T21:08:19.334Z,10.49
2023-10-26T21:10:47.265Z,10.28
2023-10-26T21:13:15.308Z,10.20
2023-10-26T21:15:43.056Z,10.23
2023-10-26T21:18:11.460Z,10.26
2023-10-26T21:20:40.362Z,10.20
2023-10-26T21:23:09.339Z,10.18
2023-10-26T21:25:36.971Z,10.18
2023-10-26T21:28:04.830Z,10.22
2023-10-26T21:30:32.498Z,10.31
2023-10-26T21:33:00.115Z,10.29
2023-10-26T21:35:28.140Z,10.35
2023-10-26T21:37:56.790Z,10.41
2023-10-26T21:40:25.771Z,10.46
2023-10-26T21:42:53.533Z,10.47
2023-10-26T21:45:21.131Z,10.48
2023-10-26T21:47:49.103Z,10.48
2023-10-26T21:50:16.876Z,10.49
2023-10-26T21:52:44.750Z,10.51
2023-10-26T21:55:12.661Z,10.49
2023-10-26T21:57:42.135Z,10.40
2023-10-26T22:00:12.568Z,10.49
2023-10-26T22:02:43.892Z,10.39
2023-10-26T22:05:11.613Z,10.42
2023-10-26T22:07:39.362Z,10.45
2023-10-26T22:10:08.785Z,10.49
2023-10-26T22:12:36.425Z,10.45
2023-10-26T22:15:06.339Z,10.42
2023-10-26T22:17:34.026Z,10.46
2023-10-26T22:20:01.913Z,10.48
2023-10-26T22:22:29.572Z,10.47
2023-10-26T22:24:57.199Z,10.42
2023-10-26T22:27:24.859Z,10.41
2023-10-26T22:29:52.516Z,10.26
2023-10-26T22:32:21.452Z,10.26
2023-10-26T22:34:49.091Z,10.30
2023-10-26T22:37:16.810Z,10.35
2023-10-26T22:39:45.094Z,10.35
2023-10-26T22:42:13.152Z,10.31
2023-10-26T22:44:40.802Z,10.26
2023-10-26T22:47:08.576Z,10.17
2023-10-26T22:49:37.727Z,10.21
2023-10-26T22:52:06.918Z,10.12
2023-10-26T22:54:34.409Z,10.12
2023-10-26T22:57:01.991Z,10.05
2023-10-26T22:59:29.677Z,10.02
2023-10-26T23:01:57.869Z,10.05
2023-10-26T23:04:26.074Z,10.02
2023-10-26T23:06:55.215Z,10.04
2023-10-26T23:09:22.954Z,10.05
2023-10-26T23:11:50.566Z,10.09
2023-10-26T23:14:18.217Z,10.07
2023-10-26T23:16:49.289Z,10.18
2023-10-26T23:19:17.844Z,10.16
2023-10-26T23:21:46.127Z,10.14
2023-10-26T23:24:15.227Z,10.10
2023-10-26T23:26:42.816Z,10.12
2023-10-26T23:29:10.430Z,10.11
2023-10-26T23:31:38.042Z,10.14
2023-10-26T23:34:05.765Z,10.08
2023-10-26T23:36:33.419Z,10.07
2023-10-26T23:39:01.032Z,10.04
2023-10-26T23:41:30.046Z,10.07
2023-10-26T23:43:57.651Z,10.07
2023-10-26T23:46:25.304Z,10.05
2023-10-26T23:48:53.044Z,10.05
2023-10-26T23:51:20.677Z,10.01
2023-10-26T23:53:48.320Z,9.93
2023-10-26T23:56:16.551Z,9.91
2023-10-26T23:58:45.479Z,9.94
